createdAt,value
2023-05-17T00:00:43.236Z,11.07
2023-05-17T00:01:45.372Z,11.06
2023-05-17T00:02:47.420Z,11.06
2023-05-17T00:03:49.275Z,11.01
2023-05-17T00:04:51.381Z,11.02
2023-05-17T00:05:53.533Z,11.01
2023-05-17T00:06:55.376Z,11.02
2023-05-17T00:07:57.339Z,11.02
2023-05-17T00:08:59.286Z,11.02
2023-05-17T00:10:01.251Z,11.01
2023-05-17T00:11:03.205Z,11.01
2023-05-17T00:12:05.572Z,10.98
2023-05-17T00:13:07.507Z,10.99
2023-05-17T00:14:09.361Z,10.99
2023-05-17T00:15:11.373Z,11.01
2023-05-17T00:16:13.310Z,11.04
2023-05-17T00:17:16.200Z,11.04
2023-05-17T00:18:18.260Z,11.05
2023-05-17T00:19:21.070Z,11.05
2023-05-17T00:20:23.056Z,11.05
2023-05-17T00:21:24.977Z,10.99
2023-05-17T00:22:27.109Z,10.96
2023-05-17T00:23:29.044Z,10.96
2023-05-17T00:24:31.038Z,10.95
2023-05-17T00:25:32.983Z,10.94
2023-05-17T00:26:34.879Z,10.95
2023-05-17T00:27:36.847Z,10.95
2023-05-17T00:28:38.738Z,10.95
2023-05-17T00:29:40.585Z,10.94
2023-05-17T00:30:42.569Z,10.92
2023-05-17T00:31:44.608Z,10.90
2023-05-17T00:32:47.288Z,10.87
2023-05-17T00:33:49.299Z,10.87
2023-05-17T00:34:51.282Z,10.88
2023-05-17T00:35:53.299Z,10.87
2023-05-17T00:36:55.153Z,10.87
2023-05-17T00:37:57.117Z,10.88
2023-05-17T00:38:59.044Z,10.87
2023-05-17T00:40:01.033Z,10.89
2023-05-17T00:41:02.914Z,10.87
2023-05-17T00:42:05.662Z,10.88
2023-05-17T00:43:07.619Z,10.90
2023-05-17T00:44:09.508Z,10.91
2023-05-17T00:45:11.537Z,10.88
2023-05-17T00:46:13.477Z,10.87
2023-05-17T00:47:15.292Z,10.86
2023-05-17T00:48:17.367Z,10.84
2023-05-17T00:49:19.771Z,10.84
2023-05-17T00:50:21.699Z,10.83
2023-05-17T00:51:23.648Z,10.83
2023-05-17T00:52:25.684Z,10.85
2023-05-17T00:53:29.060Z,10.87
2023-05-17T00:54:31.700Z,10.87
2023-05-17T00:55:34.011Z,10.89
2023-05-17T00:56:36.310Z,10.89
2023-05-17T00:57:38.315Z,10.88
2023-05-17T00:58:41.301Z,10.89
2023-05-17T00:59:44.760Z,10.90
2023-05-17T01:00:47.292Z,10.88
2023-05-17T01:01:49.273Z,10.88
2023-05-17T01:02:51.322Z,10.86
2023-05-17T01:03:53.428Z,10.87
2023-05-17T01:04:55.816Z,10.88
2023-05-17T01:05:57.881Z,10.87
2023-05-17T01:06:59.823Z,10.84
2023-05-17T01:08:01.710Z,10.85
2023-05-17T01:09:04.450Z,10.86
2023-05-17T01:10:07.203Z,10.84
2023-05-17T01:11:27.946Z,10.85
2023-05-17T01:12:32.526Z,10.88
2023-05-17T01:13:46.569Z,10.86
2023-05-17T01:14:59.125Z,10.87
2023-05-17T01:16:10.255Z,10.90
2023-05-17T01:17:24.637Z,10.90
2023-05-17T01:18:40.889Z,10.91
2023-05-17T01:19:52.695Z,10.89
2023-05-17T01:20:59.696Z,10.87
2023-05-17T01:22:07.505Z,10.86
2023-05-17T01:23:35.410Z,10.87
2023-05-17T01:24:49.086Z,10.86
2023-05-17T01:26:00.010Z,10.85
2023-05-17T01:27:05.490Z,10.86
2023-05-17T01:28:08.569Z,10.84
2023-05-17T01:29:10.674Z,10.80
2023-05-17T01:30:13.930Z,10.83
2023-05-17T01:31:16.338Z,10.82
2023-05-17T01:32:18.475Z,10.75
2023-05-17T01:33:21.580Z,10.69
2023-05-17T01:34:30.062Z,10.70
2023-05-17T01:35:31.983Z,10.67
2023-05-17T01:36:33.938Z,10.68
2023-05-17T01:37:35.945Z,10.68
2023-05-17T01:38:37.897Z,10.69
2023-05-17T01:39:40.688Z,10.70
2023-05-17T01:40:53.061Z,10.72
2023-05-17T01:42:03.091Z,10.73
2023-05-17T01:43:15.184Z,10.72
2023-05-17T01:44:22.919Z,10.73
2023-05-17T01:45:33.473Z,10.72
2023-05-17T01:46:42.447Z,10.69
2023-05-17T01:47:53.881Z,10.70
2023-05-17T01:49:14.733Z,10.74
2023-05-17T01:50:18.418Z,10.71
2023-05-17T01:51:22.121Z,10.72
2023-05-17T01:52:23.920Z,10.73
2023-05-17T01:53:46.826Z,10.70
2023-05-17T01:54:53.048Z,10.69
2023-05-17T01:55:57.125Z,10.69
2023-05-17T01:56:59.577Z,10.69
2023-05-17T01:58:04.238Z,10.69
2023-05-17T01:59:07.174Z,10.70
2023-05-17T02:00:09.936Z,10.64
2023-05-17T02:01:13.558Z,10.63
2023-05-17T02:02:16.004Z,10.65
2023-05-17T02:03:18.789Z,10.65
2023-05-17T02:04:21.004Z,10.65
2023-05-17T02:05:23.017Z,10.64
2023-05-17T02:06:24.980Z,10.61
2023-05-17T02:07:26.911Z,10.58
2023-05-17T02:08:28.821Z,10.58
2023-05-17T02:09:31.267Z,10.58
2023-05-17T02:10:33.176Z,10.58
2023-05-17T02:11:36.409Z,10.56
2023-05-17T02:12:38.325Z,10.55
2023-05-17T02:13:40.763Z,10.55
2023-05-17T02:14:42.651Z,10.54
2023-05-17T02:15:44.572Z,10.54
2023-05-17T02:16:46.498Z,10.56
2023-05-17T02:17:48.593Z,10.52
2023-05-17T02:18:51.288Z,10.52
2023-05-17T02:19:53.183Z,10.53
2023-05-17T02:20:55.154Z,10.53
2023-05-17T02:21:57.061Z,10.52
2023-05-17T02:22:58.994Z,10.50
2023-05-17T02:24:00.945Z,10.48
2023-05-17T02:25:02.917Z,10.48
2023-05-17T02:26:04.842Z,10.49
2023-05-17T02:27:06.754Z,10.50
2023-05-17T02:28:08.594Z,10.49
2023-05-17T02:29:11.781Z,10.47
2023-05-17T02:30:16.408Z,10.45
2023-05-17T02:31:19.962Z,10.42
2023-05-17T02:32:21.903Z,10.43
2023-05-17T02:33:24.106Z,10.41
2023-05-17T02:34:26.583Z,10.39
2023-05-17T02:35:28.904Z,10.32
2023-05-17T02:36:31.148Z,10.33
2023-05-17T02:37:33.081Z,10.34
2023-05-17T02:38:35.079Z,10.34
2023-05-17T02:39:37.011Z,10.34
2023-05-17T02:40:41.376Z,10.33
2023-05-17T02:41:45.413Z,10.32
2023-05-17T02:42:47.426Z,10.29
2023-05-17T02:43:49.787Z,10.29
2023-05-17T02:44:54.471Z,10.29
2023-05-17T02:45:56.322Z,10.27
2023-05-17T02:46:58.255Z,10.23
2023-05-17T02:48:00.158Z,10.21
2023-05-17T02:49:02.144Z,10.23
2023-05-17T02:50:04.234Z,10.21
2023-05-17T02:51:06.119Z,10.21
2023-05-17T02:52:08.152Z,10.19
2023-05-17T02:53:10.024Z,10.16
2023-05-17T02:54:11.970Z,10.17
2023-05-17T02:55:13.902Z,10.18
2023-05-17T02:56:15.877Z,10.19
2023-05-17T02:57:17.774Z,10.21
2023-05-17T02:58:19.653Z,10.22
2023-05-17T02:59:21.724Z,10.24
2023-05-17T03:00:23.661Z,10.23
2023-05-17T03:01:25.521Z,10.17
2023-05-17T03:02:27.480Z,10.14
2023-05-17T03:03:29.569Z,10.11
2023-05-17T03:04:32.904Z,10.12
2023-05-17T03:05:34.937Z,10.11
2023-05-17T03:06:38.080Z,10.11
2023-05-17T03:07:39.999Z,10.09
2023-05-17T03:08:41.940Z,10.06
2023-05-17T03:09:43.840Z,10.05
2023-05-17T03:10:45.844Z,10.09
2023-05-17T03:11:47.763Z,10.10
2023-05-17T03:12:49.653Z,10.01
2023-05-17T03:13:52.099Z,10.04
2023-05-17T03:14:54.018Z,10.06
2023-05-17T03:15:56.111Z,10.08
2023-05-17T03:16:58.027Z,10.08
2023-05-17T03:18:00.330Z,10.09
2023-05-17T03:19:02.525Z,10.08
2023-05-17T03:20:06.792Z,10.07
2023-05-17T03:21:08.764Z,10.09
2023-05-17T03:22:11.317Z,10.09
2023-05-17T03:23:13.142Z,10.06
2023-05-17T03:24:15.069Z,10.07
2023-05-17T03:25:16.944Z,10.09
2023-05-17T03:26:20.344Z,10.10
2023-05-17T03:27:22.269Z,10.12
2023-05-17T03:28:24.176Z,10.13
2023-05-17T03:29:26.014Z,10.12
2023-05-17T03:30:28.039Z,10.08
2023-05-17T03:31:30.011Z,10.08
2023-05-17T03:32:31.991Z,10.05
2023-05-17T03:33:34.011Z,10.06
2023-05-17T03:34:36.013Z,10.06
2023-05-17T03:35:38.029Z,10.07
2023-05-17T03:36:41.161Z,10.07
2023-05-17T03:37:45.392Z,10.08
2023-05-17T03:38:47.302Z,10.04
2023-05-17T03:39:49.194Z,10.01
2023-05-17T03:40:52.033Z,9.99
2023-05-17T03:41:53.986Z,10.00
2023-05-17T03:42:55.891Z,9.98
2023-05-17T03:43:58.013Z,9.99
2023-05-17T03:45:00.440Z,9.98
2023-05-17T03:46:02.380Z,9.96
2023-05-17T03:47:04.344Z,9.98
2023-05-17T03:48:06.463Z,9.94
2023-05-17T03:49:08.879Z,9.94
2023-05-17T03:50:11.343Z,9.96
2023-05-17T03:51:13.278Z,9.95
2023-05-17T03:52:15.190Z,9.94
2023-05-17T03:53:17.152Z,9.92
2023-05-17T03:54:19.038Z,9.89
2023-05-17T03:55:21.016Z,9.87
2023-05-17T03:56:22.864Z,9.89
2023-05-17T03:57:24.947Z,9.93
2023-05-17T03:58:26.848Z,9.94
2023-05-17T03:59:28.712Z,9.92
2023-05-17T04:00:30.639Z,9.92
2023-05-17T04:01:32.480Z,9.93
2023-05-17T04:02:34.408Z,9.91
2023-05-17T04:03:38.038Z,9.88
2023-05-17T04:04:40.021Z,9.88
2023-05-17T04:05:42.150Z,9.88
2023-05-17T04:06:44.097Z,9.89
2023-05-17T04:07:46.500Z,9.90
2023-05-17T04:08:48.380Z,9.88
2023-05-17T04:09:50.342Z,9.81
2023-05-17T04:10:52.315Z,9.82
2023-05-17T04:11:54.246Z,9.80
2023-05-17T04:12:56.168Z,9.79
2023-05-17T04:13:58.054Z,9.76
2023-05-17T04:14:59.976Z,9.75
2023-05-17T04:16:01.791Z,9.76
2023-05-17T04:17:03.701Z,9.77
2023-05-17T04:18:05.897Z,9.80
2023-05-17T04:19:08.001Z,9.79
2023-05-17T04:20:10.369Z,9.80
2023-05-17T04:21:12.294Z,9.82
2023-05-17T04:22:14.306Z,9.82
2023-05-17T04:23:16.472Z,9.80
2023-05-17T04:24:18.501Z,9.78
2023-05-17T04:25:20.413Z,9.78
2023-05-17T04:26:22.348Z,9.78
2023-05-17T04:27:24.236Z,9.79
2023-05-17T04:28:26.482Z,9.79
2023-05-17T04:29:28.399Z,9.82
2023-05-17T04:30:30.285Z,9.85
2023-05-17T04:31:32.446Z,9.87
2023-05-17T04:32:34.535Z,9.85
2023-05-17T04:33:37.419Z,9.80
2023-05-17T04:34:39.446Z,9.79
2023-05-17T04:35:42.804Z,9.81
2023-05-17T04:36:44.702Z,9.82
2023-05-17T04:37:46.578Z,9.84
2023-05-17T04:38:48.448Z,9.81
2023-05-17T04:39:50.476Z,9.79
2023-05-17T04:40:52.571Z,9.79
2023-05-17T04:41:54.504Z,9.81
2023-05-17T04:42:56.443Z,9.81
2023-05-17T04:43:58.367Z,9.82
2023-05-17T04:45:00.353Z,9.81
2023-05-17T04:46:02.264Z,9.82
2023-05-17T04:47:04.303Z,9.80
2023-05-17T04:48:06.369Z,9.78
2023-05-17T04:49:08.891Z,9.76
2023-05-17T04:50:11.062Z,9.75
2023-05-17T04:51:12.942Z,9.73
2023-05-17T04:52:14.832Z,9.72
2023-05-17T04:53:16.881Z,9.73
2023-05-17T04:54:18.784Z,9.73
2023-05-17T04:55:20.865Z,9.77
2023-05-17T04:56:23.093Z,9.71
2023-05-17T04:57:24.943Z,9.72
2023-05-17T04:58:26.926Z,9.71
2023-05-17T04:59:28.836Z,9.73
2023-05-17T05:00:30.851Z,9.72
2023-05-17T05:01:33.086Z,9.73
2023-05-17T05:02:34.989Z,9.76
2023-05-17T05:03:39.153Z,9.77
2023-05-17T05:04:41.294Z,9.77
2023-05-17T05:05:43.249Z,9.77
2023-05-17T05:06:46.858Z,9.77
2023-05-17T05:07:48.746Z,9.76
2023-05-17T05:08:50.667Z,9.76
2023-05-17T05:09:52.632Z,9.79
2023-05-17T05:10:54.629Z,9.78
2023-05-17T05:11:56.511Z,9.76
2023-05-17T05:12:58.614Z,9.75
2023-05-17T05:14:00.496Z,9.75
2023-05-17T05:15:02.454Z,9.77
2023-05-17T05:16:04.669Z,9.77
2023-05-17T05:17:06.603Z,9.75
2023-05-17T05:18:08.670Z,9.75
2023-05-17T05:19:10.939Z,9.78
2023-05-17T05:20:13.314Z,9.80
2023-05-17T05:21:15.201Z,9.79
2023-05-17T05:22:17.233Z,9.81
2023-05-17T05:23:21.409Z,9.81
2023-05-17T05:24:23.277Z,9.82
2023-05-17T05:25:25.160Z,9.84
2023-05-17T05:26:27.126Z,9.87
2023-05-17T05:27:29.199Z,9.87
2023-05-17T05:28:31.419Z,9.85
2023-05-17T05:29:33.327Z,9.87
2023-05-17T05:30:35.246Z,9.89
2023-05-17T05:31:37.294Z,9.87
2023-05-17T05:32:39.391Z,9.88
2023-05-17T05:33:41.610Z,9.86
2023-05-17T05:34:44.219Z,9.89
2023-05-17T05:35:46.147Z,9.90
2023-05-17T05:36:48.068Z,9.91
2023-05-17T05:37:50.142Z,9.93
2023-05-17T05:38:54.828Z,9.94
2023-05-17T05:39:56.731Z,9.96
2023-05-17T05:40:58.595Z,9.94
2023-05-17T05:42:00.457Z,9.93
2023-05-17T05:43:02.395Z,9.93
2023-05-17T05:44:04.425Z,9.93
2023-05-17T05:45:06.634Z,9.94
2023-05-17T05:46:08.662Z,9.92
2023-05-17T05:47:10.530Z,9.91
2023-05-17T05:48:13.306Z,9.89
2023-05-17T05:49:15.405Z,9.82
2023-05-17T05:50:17.342Z,9.77
2023-05-17T05:51:21.362Z,9.78
2023-05-17T05:52:24.565Z,9.77
2023-05-17T05:53:26.625Z,9.74
2023-05-17T05:54:28.488Z,9.73
2023-05-17T05:55:30.342Z,9.76
2023-05-17T05:56:32.227Z,9.76
2023-05-17T05:57:34.197Z,9.79
2023-05-17T05:58:36.199Z,9.78
2023-05-17T05:59:38.111Z,9.77
2023-05-17T06:00:40.001Z,9.80
2023-05-17T06:01:42.054Z,9.80
2023-05-17T06:02:44.018Z,9.82
2023-05-17T06:03:46.132Z,9.83
2023-05-17T06:04:48.498Z,9.81
2023-05-17T06:05:50.621Z,9.80
2023-05-17T06:06:52.976Z,9.79
2023-05-17T06:07:55.831Z,9.76
2023-05-17T06:08:59.677Z,9.76
2023-05-17T06:10:01.765Z,9.76
2023-05-17T06:11:03.599Z,9.70
2023-05-17T06:12:05.808Z,9.68
2023-05-17T06:13:07.827Z,9.66
2023-05-17T06:14:09.895Z,9.65
2023-05-17T06:15:12.205Z,9.64
2023-05-17T06:16:14.094Z,9.64
2023-05-17T06:17:15.990Z,9.64
2023-05-17T06:18:17.987Z,9.65
2023-05-17T06:19:20.949Z,9.65
2023-05-17T06:20:22.938Z,9.67
2023-05-17T06:21:25.823Z,9.69
2023-05-17T06:22:27.820Z,9.70
2023-05-17T06:23:29.869Z,9.72
2023-05-17T06:25:34.885Z,9.71
2023-05-17T06:26:36.778Z,9.73
2023-05-17T06:27:38.754Z,9.74
2023-05-17T06:28:40.629Z,9.75
2023-05-17T06:29:42.534Z,9.77
2023-05-17T06:30:45.158Z,9.70
2023-05-17T06:31:47.202Z,9.66
2023-05-17T06:32:49.142Z,9.60
2023-05-17T06:33:51.174Z,9.63
2023-05-17T06:34:53.174Z,9.63
2023-05-17T06:35:57.541Z,9.60
2023-05-17T06:37:00.296Z,9.64
2023-05-17T06:38:02.337Z,9.63
2023-05-17T06:39:04.278Z,9.66
2023-05-17T06:40:15.966Z,9.64
2023-05-17T06:41:19.111Z,9.68
2023-05-17T06:42:20.980Z,9.69
2023-05-17T06:43:22.909Z,9.71
2023-05-17T06:44:24.901Z,9.73
2023-05-17T06:45:27.812Z,9.75
2023-05-17T06:46:29.762Z,9.77
2023-05-17T06:47:31.618Z,9.79
2023-05-17T06:48:33.587Z,9.76
2023-05-17T06:49:35.948Z,9.75
2023-05-17T06:50:37.991Z,9.70
2023-05-17T06:51:39.959Z,9.72
2023-05-17T06:52:41.943Z,9.70
2023-05-17T06:53:43.761Z,9.66
2023-05-17T06:54:45.651Z,9.64
2023-05-17T06:55:47.654Z,9.65
2023-05-17T06:56:49.677Z,9.65
2023-05-17T06:57:51.574Z,9.64
2023-05-17T06:58:53.466Z,9.62
2023-05-17T06:59:55.330Z,9.64
2023-05-17T07:00:57.866Z,9.65
2023-05-17T07:02:00.511Z,9.65
2023-05-17T07:03:02.543Z,9.63
2023-05-17T07:04:04.665Z,9.60
2023-05-17T07:05:07.220Z,9.60
2023-05-17T07:06:09.158Z,9.64
2023-05-17T07:07:12.277Z,9.63
2023-05-17T07:08:15.490Z,9.59
2023-05-17T07:09:19.911Z,9.60
2023-05-17T07:10:21.766Z,9.64
2023-05-17T07:11:23.605Z,9.64
2023-05-17T07:12:25.553Z,9.63
2023-05-17T07:13:27.406Z,9.63
2023-05-17T07:14:29.806Z,9.61
2023-05-17T07:15:31.884Z,9.63
2023-05-17T07:16:34.039Z,9.64
2023-05-17T07:17:36.469Z,9.66
2023-05-17T07:18:38.558Z,9.64
2023-05-17T07:19:40.715Z,9.59
2023-05-17T07:20:42.683Z,9.57
2023-05-17T07:21:44.777Z,9.55
2023-05-17T07:22:46.876Z,9.50
2023-05-17T07:23:48.715Z,9.46
2023-05-17T07:24:51.298Z,9.45
2023-05-17T07:25:53.247Z,9.46
2023-05-17T07:26:55.177Z,9.46
2023-05-17T07:27:57.079Z,9.45
2023-05-17T07:28:59.052Z,9.46
2023-05-17T07:30:04.576Z,9.47
2023-05-17T07:31:06.728Z,9.47
2023-05-17T07:32:09.900Z,9.47
2023-05-17T07:33:11.859Z,9.47
2023-05-17T07:34:14.308Z,9.47
2023-05-17T07:35:16.610Z,9.42
2023-05-17T07:36:21.384Z,9.40
2023-05-17T07:37:24.007Z,9.42
2023-05-17T07:38:26.397Z,9.40
2023-05-17T07:39:28.556Z,9.39
2023-05-17T07:40:30.467Z,9.43
2023-05-17T07:41:34.199Z,9.39
2023-05-17T07:42:38.847Z,9.43
2023-05-17T07:43:40.787Z,9.43
2023-05-17T07:44:42.704Z,9.39
2023-05-17T07:45:45.249Z,9.39
2023-05-17T07:46:47.248Z,9.44
2023-05-17T07:47:49.193Z,9.40
2023-05-17T07:48:51.319Z,9.40
2023-05-17T07:49:53.634Z,9.38
2023-05-17T07:50:57.862Z,9.40
2023-05-17T07:51:59.653Z,9.34
2023-05-17T07:53:01.511Z,9.37
2023-05-17T07:54:03.839Z,9.36
2023-05-17T07:55:06.191Z,9.38
2023-05-17T07:56:08.355Z,9.41
2023-05-17T07:57:10.340Z,9.41
2023-05-17T07:58:12.314Z,9.38
2023-05-17T07:59:14.208Z,9.40
2023-05-17T08:00:19.670Z,9.38
2023-05-17T08:01:21.561Z,9.39
2023-05-17T08:02:25.137Z,9.40
2023-05-17T08:03:28.667Z,9.35
2023-05-17T08:04:30.577Z,9.37
2023-05-17T08:05:32.831Z,9.38
2023-05-17T08:06:34.981Z,9.37
2023-05-17T08:07:36.950Z,9.38
2023-05-17T08:08:38.819Z,9.37
2023-05-17T08:09:40.705Z,9.36
2023-05-17T08:10:43.656Z,9.34
2023-05-17T08:11:48.684Z,9.26
2023-05-17T08:12:50.854Z,9.25
2023-05-17T08:13:52.732Z,9.26
2023-05-17T08:14:54.717Z,9.18
2023-05-17T08:16:05.261Z,9.13
2023-05-17T08:17:14.373Z,9.11
2023-05-17T08:18:16.470Z,9.10
2023-05-17T08:19:18.904Z,9.15
2023-05-17T08:20:20.830Z,9.14
2023-05-17T08:21:23.320Z,9.17
2023-05-17T08:22:25.329Z,9.22
2023-05-17T08:23:27.412Z,9.24
2023-05-17T08:24:29.364Z,9.27
2023-05-17T08:25:31.673Z,9.28
2023-05-17T08:26:34.243Z,9.28
2023-05-17T08:27:37.480Z,9.29
2023-05-17T08:28:39.623Z,9.29
2023-05-17T08:29:41.522Z,9.28
2023-05-17T08:30:43.627Z,9.21
2023-05-17T08:31:46.076Z,9.19
2023-05-17T08:32:48.433Z,9.22
2023-05-17T08:33:50.559Z,9.25
2023-05-17T08:34:52.546Z,9.28
2023-05-17T08:35:55.729Z,9.25
2023-05-17T08:36:57.777Z,9.21
2023-05-17T08:37:59.827Z,9.17
2023-05-17T08:39:01.718Z,9.12
2023-05-17T08:40:05.235Z,9.11
2023-05-17T08:41:07.150Z,9.08
2023-05-17T08:42:09.110Z,9.05
2023-05-17T08:43:12.781Z,9.09
2023-05-17T08:44:15.284Z,9.12
2023-05-17T08:45:19.410Z,9.12
2023-05-17T08:46:22.163Z,9.14
2023-05-17T08:47:30.173Z,9.17
2023-05-17T08:48:32.855Z,9.15
2023-05-17T08:49:38.394Z,9.17
2023-05-17T08:50:40.428Z,9.17
2023-05-17T08:51:42.613Z,9.19
2023-05-17T08:52:45.780Z,9.21
2023-05-17T08:53:48.444Z,9.23
2023-05-17T08:54:50.353Z,9.28
2023-05-17T08:55:54.371Z,9.30
2023-05-17T08:56:59.293Z,9.29
2023-05-17T08:58:01.563Z,9.30
2023-05-17T08:59:06.012Z,9.32
2023-05-17T09:00:13.844Z,9.30
2023-05-17T09:01:17.243Z,9.22
2023-05-17T09:02:19.608Z,9.18
2023-05-17T09:03:23.003Z,9.13
2023-05-17T09:04:25.635Z,9.11
2023-05-17T09:05:28.611Z,9.12
2023-05-17T09:06:31.359Z,9.15
2023-05-17T09:07:33.337Z,9.14
2023-05-17T09:08:35.489Z,9.16
2023-05-17T09:09:37.582Z,9.15
2023-05-17T09:10:39.914Z,9.13
2023-05-17T09:11:41.962Z,9.13
2023-05-17T09:12:44.523Z,9.16
2023-05-17T09:13:46.633Z,9.09
2023-05-17T09:14:49.333Z,9.06
2023-05-17T09:15:51.266Z,9.05
2023-05-17T09:16:59.384Z,9.01
2023-05-17T09:18:01.455Z,9.01
2023-05-17T09:19:04.888Z,9.04
2023-05-17T09:20:08.123Z,9.05
2023-05-17T09:21:13.746Z,9.05
2023-05-17T09:22:18.300Z,9.07
2023-05-17T09:23:21.751Z,9.09
2023-05-17T09:24:31.448Z,9.12
2023-05-17T09:25:34.149Z,9.13
2023-05-17T09:26:40.556Z,9.16
2023-05-17T09:27:42.610Z,9.19
2023-05-17T09:28:44.975Z,9.23
2023-05-17T09:29:47.031Z,9.24
2023-05-17T09:30:50.247Z,9.21
2023-05-17T09:31:52.167Z,9.26
2023-05-17T09:32:54.306Z,9.26
2023-05-17T09:33:59.626Z,9.28
2023-05-17T09:35:02.968Z,9.30
2023-05-17T09:36:15.709Z,9.30
2023-05-17T09:37:18.734Z,9.33
2023-05-17T09:38:25.819Z,9.25
2023-05-17T09:39:27.736Z,9.23
2023-05-17T09:40:29.907Z,9.25
2023-05-17T09:41:41.716Z,9.27
2023-05-17T09:42:43.780Z,9.26
2023-05-17T09:43:46.373Z,9.28
2023-05-17T09:44:58.024Z,9.28
2023-05-17T09:45:59.968Z,9.29
2023-05-17T09:47:01.951Z,9.27
2023-05-17T09:48:17.687Z,9.26
2023-05-17T09:49:19.729Z,9.27
2023-05-17T09:50:25.356Z,9.27
2023-05-17T09:51:34.013Z,9.24
2023-05-17T09:52:35.988Z,9.21
2023-05-17T09:53:40.581Z,9.23
2023-05-17T09:54:42.595Z,9.26
2023-05-17T09:55:48.397Z,9.25
2023-05-17T09:56:59.970Z,9.27
2023-05-17T09:58:05.148Z,9.27
2023-05-17T09:59:14.820Z,9.30
2023-05-17T10:00:18.290Z,9.32
2023-05-17T10:01:21.110Z,9.31
2023-05-17T10:02:23.718Z,9.31
2023-05-17T10:03:27.495Z,9.30
2023-05-17T10:04:31.067Z,9.29
2023-05-17T10:05:33.460Z,9.31
2023-05-17T10:06:46.344Z,9.32
2023-05-17T10:07:52.034Z,9.31
2023-05-17T10:08:57.038Z,9.29
2023-05-17T10:09:59.776Z,9.31
2023-05-17T10:11:23.379Z,9.35
2023-05-17T10:12:29.742Z,9.36
2023-05-17T10:13:35.193Z,9.36
2023-05-17T10:14:37.377Z,9.38
2023-05-17T10:15:41.194Z,9.38
2023-05-17T10:16:43.990Z,9.33
2023-05-17T10:17:46.574Z,9.30
2023-05-17T10:18:49.950Z,9.20
2023-05-17T10:19:53.093Z,9.21
2023-05-17T10:20:56.277Z,9.21
2023-05-17T10:22:11.162Z,9.18
2023-05-17T10:23:21.203Z,9.22
2023-05-17T10:24:23.761Z,9.24
2023-05-17T10:25:26.113Z,9.26
2023-05-17T10:26:28.911Z,9.27
2023-05-17T10:27:31.145Z,9.20
2023-05-17T10:28:33.482Z,9.28
2023-05-17T10:29:36.725Z,9.33
2023-05-17T10:30:38.904Z,9.37
2023-05-17T10:31:41.699Z,9.38
2023-05-17T10:32:44.359Z,9.40
2023-05-17T10:33:47.395Z,9.26
2023-05-17T10:35:01.568Z,9.27
2023-05-17T10:36:08.674Z,9.22
2023-05-17T10:37:12.262Z,9.28
2023-05-17T10:38:14.132Z,9.29
2023-05-17T10:39:16.939Z,9.35
2023-05-17T10:40:20.567Z,9.40
2023-05-17T10:41:24.597Z,9.33
2023-05-17T10:42:27.161Z,9.31
2023-05-17T10:43:30.991Z,9.30
2023-05-17T10:44:34.316Z,9.32
2023-05-17T10:45:37.451Z,9.34
2023-05-17T10:46:39.525Z,9.29
2023-05-17T10:47:45.152Z,9.24
2023-05-17T10:48:54.080Z,9.28
2023-05-17T10:49:56.270Z,9.31
2023-05-17T10:51:05.554Z,9.38
2023-05-17T10:52:14.464Z,9.43
2023-05-17T10:53:16.597Z,9.47
2023-05-17T10:54:19.246Z,9.50
2023-05-17T10:55:22.738Z,9.56
2023-05-17T10:56:24.699Z,9.59
2023-05-17T10:57:49.140Z,9.52
2023-05-17T10:59:12.349Z,9.51
2023-05-17T11:00:20.151Z,9.46
2023-05-17T11:01:45.793Z,9.45
2023-05-17T11:02:49.349Z,9.46
2023-05-17T11:03:51.425Z,9.48
2023-05-17T11:04:54.241Z,9.45
2023-05-17T11:06:22.079Z,9.50
2023-05-17T11:07:27.887Z,9.59
2023-05-17T11:08:29.858Z,9.65
2023-05-17T11:09:32.704Z,9.70
2023-05-17T11:10:36.554Z,9.76
2023-05-17T11:11:58.344Z,9.80
2023-05-17T11:13:00.326Z,9.75
2023-05-17T11:14:04.213Z,9.79
2023-05-17T11:15:08.233Z,9.79
2023-05-17T11:16:10.590Z,9.72
2023-05-17T11:17:16.580Z,9.68
2023-05-17T11:18:29.598Z,9.70
2023-05-17T11:19:33.806Z,9.73
2023-05-17T11:20:37.499Z,9.73
2023-05-17T11:21:46.963Z,9.73
2023-05-17T11:22:59.211Z,9.78
2023-05-17T11:24:02.554Z,9.78
2023-05-17T11:25:08.861Z,9.82
2023-05-17T11:26:19.020Z,9.74
2023-05-17T11:27:21.564Z,9.67
2023-05-17T11:28:23.474Z,9.73
2023-05-17T11:29:29.263Z,9.73
2023-05-17T11:30:32.700Z,9.74
2023-05-17T11:31:36.423Z,9.76
2023-05-17T11:32:38.429Z,9.76
2023-05-17T11:33:44.968Z,9.77
2023-05-17T11:34:52.436Z,9.77
2023-05-17T11:35:55.522Z,9.82
2023-05-17T11:36:57.448Z,9.85
2023-05-17T11:38:14.988Z,9.82
2023-05-17T11:39:19.728Z,9.87
2023-05-17T11:40:25.518Z,9.84
2023-05-17T11:41:27.542Z,9.78
2023-05-17T11:42:29.814Z,9.80
2023-05-17T11:43:34.391Z,9.83
2023-05-17T11:44:37.211Z,9.87
2023-05-17T11:45:50.663Z,9.92
2023-05-17T11:47:01.982Z,9.93
2023-05-17T11:48:05.340Z,9.94
2023-05-17T11:49:08.091Z,9.96
2023-05-17T11:50:11.259Z,10.01
2023-05-17T11:51:15.654Z,9.97
2023-05-17T11:52:17.556Z,9.92
2023-05-17T11:53:19.900Z,9.94
2023-05-17T11:54:26.292Z,9.97
2023-05-17T11:55:28.394Z,9.89
2023-05-17T11:56:43.547Z,9.86
2023-05-17T11:57:46.222Z,9.89
2023-05-17T11:58:50.976Z,9.92
2023-05-17T11:59:58.863Z,9.95
2023-05-17T12:01:00.883Z,9.95
2023-05-17T12:02:03.393Z,9.96
2023-05-17T12:03:21.465Z,9.95
2023-05-17T12:04:27.900Z,9.96
2023-05-17T12:05:29.916Z,9.97
2023-05-17T12:06:33.109Z,10.02
2023-05-17T12:07:35.251Z,9.93
2023-05-17T12:08:38.740Z,9.87
2023-05-17T12:09:40.980Z,9.82
2023-05-17T12:10:47.602Z,9.85
2023-05-17T12:11:49.558Z,9.92
2023-05-17T12:12:51.500Z,9.99
2023-05-17T12:13:53.372Z,10.05
2023-05-17T12:14:55.306Z,10.08
2023-05-17T12:15:58.822Z,10.04
2023-05-17T12:17:02.784Z,10.04
2023-05-17T12:18:04.960Z,10.07
2023-05-17T12:19:17.668Z,10.03
2023-05-17T12:20:19.793Z,10.04
2023-05-17T12:21:21.772Z,10.06
2023-05-17T12:22:23.779Z,10.06
2023-05-17T12:23:29.789Z,10.09
2023-05-17T12:24:41.806Z,10.01
2023-05-17T12:25:43.825Z,10.02
2023-05-17T12:26:46.663Z,10.05
2023-05-17T12:27:48.722Z,10.04
2023-05-17T12:28:55.349Z,10.00
2023-05-17T12:29:57.252Z,10.00
2023-05-17T12:31:02.946Z,10.00
2023-05-17T12:32:06.466Z,10.01
2023-05-17T12:33:08.717Z,10.00
2023-05-17T12:34:13.093Z,10.07
2023-05-17T12:35:15.206Z,10.14
2023-05-17T12:36:18.222Z,10.17
2023-05-17T12:37:20.324Z,10.21
2023-05-17T12:38:22.434Z,10.21
2023-05-17T12:39:25.075Z,10.25
2023-05-17T12:40:27.492Z,10.29
2023-05-17T12:41:30.056Z,10.32
2023-05-17T12:42:34.869Z,10.36
2023-05-17T12:43:37.883Z,10.37
2023-05-17T12:44:39.753Z,10.35
2023-05-17T12:45:42.301Z,10.30
2023-05-17T12:46:45.261Z,10.29
2023-05-17T12:47:47.275Z,10.28
2023-05-17T12:48:50.420Z,10.28
2023-05-17T12:49:54.556Z,10.28
2023-05-17T12:50:56.513Z,10.31
2023-05-17T12:52:03.759Z,10.35
2023-05-17T12:53:09.484Z,10.38
2023-05-17T12:54:12.155Z,10.34
2023-05-17T12:55:14.251Z,10.27
2023-05-17T12:56:20.398Z,10.21
2023-05-17T12:57:22.368Z,10.17
2023-05-17T12:58:24.283Z,10.21
2023-05-17T12:59:26.416Z,10.21
2023-05-17T13:00:28.596Z,10.20
2023-05-17T13:01:37.591Z,10.26
2023-05-17T13:02:42.498Z,10.16
2023-05-17T13:03:50.746Z,10.13
2023-05-17T13:04:52.749Z,10.12
2023-05-17T13:05:58.625Z,10.12
2023-05-17T13:07:01.736Z,10.06
2023-05-17T13:08:22.097Z,10.00
2023-05-17T13:09:25.378Z,9.99
2023-05-17T13:10:28.664Z,10.07
2023-05-17T13:11:32.066Z,9.99
2023-05-17T13:12:34.013Z,10.01
2023-05-17T13:13:36.207Z,9.98
2023-05-17T13:14:39.339Z,9.97
2023-05-17T13:15:41.333Z,10.00
2023-05-17T13:16:43.368Z,10.06
2023-05-17T13:17:50.357Z,10.04
2023-05-17T13:18:52.873Z,10.02
2023-05-17T13:19:58.169Z,10.00
2023-05-17T13:21:00.741Z,9.98
2023-05-17T13:22:03.450Z,9.89
2023-05-17T13:23:07.355Z,9.92
2023-05-17T13:24:10.195Z,9.91
2023-05-17T13:25:14.398Z,9.93
2023-05-17T13:26:18.342Z,10.04
2023-05-17T13:27:20.490Z,10.10
2023-05-17T13:28:22.490Z,10.07
2023-05-17T13:29:38.214Z,9.92
2023-05-17T13:30:46.347Z,9.87
2023-05-17T13:31:48.377Z,9.90
2023-05-17T13:32:51.015Z,9.97
2023-05-17T13:33:53.180Z,9.99
2023-05-17T13:34:55.348Z,10.02
2023-05-17T13:35:57.481Z,10.03
2023-05-17T13:36:59.385Z,10.05
2023-05-17T13:38:01.412Z,10.04
2023-05-17T13:39:03.349Z,10.09
2023-05-17T13:40:06.083Z,10.15
2023-05-17T13:41:09.451Z,10.21
2023-05-17T13:42:13.766Z,10.26
2023-05-17T13:43:16.590Z,10.36
2023-05-17T13:44:18.524Z,10.34
2023-05-17T13:45:20.557Z,10.39
2023-05-17T13:46:22.694Z,10.45
2023-05-17T13:47:24.972Z,10.48
2023-05-17T13:48:27.242Z,10.44
2023-05-17T13:49:29.274Z,10.38
2023-05-17T13:50:31.706Z,10.36
2023-05-17T13:51:35.157Z,10.28
2023-05-17T13:52:37.044Z,10.25
2023-05-17T13:53:39.287Z,10.33
2023-05-17T13:54:41.268Z,10.38
2023-05-17T13:55:43.252Z,10.49